Aviation Digital Data Service (ADDS)

Output produced by METARs form (1555 UTC 23 April 2017)
found at http://www.aviationweather.gov/adds/metars/
 
TAF SLCO 231000Z 2312/2412 00000KT 9999 SCT015 BKN070 TX32/2319Z TN22 /2410Z 
     BECMG 2314/2317 33008KT 9999 NSW SCT017 BKN080 
     TEMPO 2318/2320 6000 SHRA FEW020CB 
     BECMG 2323/2401 00000KT 9999 NSW FEW015 SCT070
       
TAF SLCB 231000Z 2312/2412 00000KT 9999 FEW030 SCT070 TX29/2319Z TN09 /2410Z 
     BECMG 2316/2318 26010KT 
     BECMG 2402/2404 00000KT
       
TAF SLLP 231000Z 2312/2412 13008KT 9999 FEW015 TX16/2320Z TNM01/2410Z 
     TEMPO 2318/2322 8000 VCSH FEW020 FEW023CB 
     BECMG 2323/2402 07004KT 
     TEMPO 2407/2411 3000E VCFG FEW002 SCT012
       
TAF SLOR 231000Z 2312/2412 03005KT 9999 NSC TX20/2320Z TNM04/2410Z 
     TEMPO 2317/2320 33010KT FEW020
       
TAF SLPS 231000Z 2312/2412 00000KT 9999 BKN015 OVC070 TX28/2320Z TN20 /2410Z 
     BECMG 2314/2316 06005KT SCT023 BKN070 
     BECMG 2323/2401 00000KT
       
TAF SLET 231000Z 2312/2412 18005KT 7000 DZ SCT008 BKN015 OVC070 TX27/ 2320Z TN19/2411Z 
     BECMG 2318/2320 VRB02KT 9999 NSW BKN020 BKN070 
     BECMG 2321/2323 33013KT SCT017
       
TAF SLVR 231000Z 2312/2412 16005KT 7000 DZ SCT008 BKN015 OVC070 TX27/ 2320Z TN19/2411Z 
     BECMG 2318/2320 VRB02KT 9999 NSW BKN020 BKN070 
     BECMG 2321/2323 33013KT SCT017
       
TAF SLTJ 231000Z 2312/2412 00000KT 9999 BKN025 OVC070 TX22/2319Z TN13 /2410Z 
     BECMG 2316/2318 13010KT SCT027 BKN070 
     BECMG 2402/2404 00000KT
       
TAF SLTR 231000Z 2312/2412 00000KT 9999 SCT015 BKN070 TX30/2319Z TN22 /2410Z 
     BECMG 2314/2317 33008KT SCT017 BKN080 
     TEMPO 2318/2320 7000 VCSH FEW020CB 
     BECMG 2323/2401 00000KT 9999 NSW FEW015
       
TAF COR SLYA 231000Z 2312/2412 00000KT 9999 SCT015 OVC070 TX25/2319Z TN15/2410Z 
     BECMG 2314/2316 02010KT SCT020 BKN070 
     BECMG 2402/2404 00000KT